Time;durP1;ratioP1;P1;durP2;ratioP2;P2;SDS_P1;SDS_P2;PMS_P1;PMS_P2;Temp;Humidity;BMP_temperature;BMP_pressure;BME280_temperature;BME280_humidity;BME280_pressure;Samples;Min_cycle;Max_cycle;Signal;HPM_P1;HPM_P2
2022/11/13 00:00:52;;;;;;;28.40;15.00;;;;;;;;;;5092136;28;20738;-78
2022/11/13 00:03:19;;;;;;;30.55;14.55;;;;;;;;;;5090625;28;20127;-78
2022/11/13 00:05:45;;;;;;;26.88;13.65;;;;;;;;;;5091523;28;20044;-79
2022/11/13 00:08:12;;;;;;;31.73;14.88;;;;;;;;;;5090351;28;20054;-78
2022/11/13 00:10:38;;;;;;;28.58;13.90;;;;;;;;;;5089280;28;20131;-75
2022/11/13 00:13:05;;;;;;;28.17;13.45;;;;;;;;;;5088304;28;20054;-78
2022/11/13 00:15:31;;;;;;;31.77;14.65;;;;;;;;;;5076302;28;20050;-78
2022/11/13 00:18:01;;;;;;;31.38;14.57;;;;;;;;;;5090705;28;20044;-76
2022/11/13 00:20:28;;;;;;;29.98;13.98;;;;;;;;;;5089389;28;20048;-77
2022/11/13 00:22:55;;;;;;;31.27;15.40;;;;;;;;;;5070681;28;20411;-80
2022/11/13 00:25:21;;;;;;;35.78;15.73;;;;;;;;;;5090443;28;20052;-75
2022/11/13 00:27:47;;;;;;;33.78;14.60;;;;;;;;;;5088755;28;20056;-78
2022/11/13 00:30:14;;;;;;;30.05;14.38;;;;;;;;;;5078085;28;20134;-78
2022/11/13 00:32:44;;;;;;;29.48;15.20;;;;;;;;;;5071689;28;20401;-75
2022/11/13 00:35:11;;;;;;;32.15;15.73;;;;;;;;;;5089804;28;20123;-79
2022/11/13 00:37:37;;;;;;;33.72;15.23;;;;;;;;;;5089301;28;20138;-79
2022/11/13 00:40:04;;;;;;;31.13;14.93;;;;;;;;;;5090330;28;20050;-77
2022/11/13 00:42:30;;;;;;;32.88;15.10;;;;;;;;;;5088107;28;20052;-78
2022/11/13 00:44:57;;;;;;;29.92;14.35;;;;;;;;;;5089618;28;20074;-77
2022/11/13 00:47:23;;;;;;;27.52;14.43;;;;;;;;;;5089166;28;20059;-77
2022/11/13 00:49:49;;;;;;;34.67;14.77;;;;;;;;;;5070708;28;20449;-77
2022/11/13 00:52:16;;;;;;;29.00;14.98;;;;;;;;;;5090389;28;20059;-77
2022/11/13 00:54:42;;;;;;;33.10;14.75;;;;;;;;;;5090135;28;20044;-78
2022/11/13 00:57:09;;;;;;;32.10;15.48;;;;;;;;;;5091140;28;20127;-78
2022/11/13 00:59:35;;;;;;;36.13;15.75;;;;;;;;;;5091682;28;20067;-77
2022/11/13 01:02:02;;;;;;;31.40;15.45;;;;;;;;;;5090152;28;20062;-76
2022/11/13 01:04:28;;;;;;;31.15;15.02;;;;;;;;;;5089167;28;20097;-77
2022/11/13 01:06:54;;;;;;;27.05;14.10;;;;;;;;;;5092181;28;20044;-78
2022/11/13 01:09:21;;;;;;;31.17;14.38;;;;;;;;;;5089640;28;20050;-77
2022/11/13 01:11:47;;;;;;;26.75;14.15;;;;;;;;;;5083057;28;20055;-79
2022/11/13 01:14:14;;;;;;;31.00;13.63;;;;;;;;;;5074149;28;20048;-78
2022/11/13 01:16:40;;;;;;;27.48;14.07;;;;;;;;;;5090623;28;20044;-78
2022/11/13 01:19:07;;;;;;;29.35;13.98;;;;;;;;;;5069605;28;20052;-77
2022/11/13 01:21:33;;;;;;;33.75;14.32;;;;;;;;;;5089571;28;20039;-79
2022/11/13 01:24:00;;;;;;;31.55;13.75;;;;;;;;;;5070411;28;20054;-78
2022/11/13 01:26:27;;;;;;;34.20;14.75;;;;;;;;;;5087760;28;20048;-77
2022/11/13 01:28:54;;;;;;;36.83;14.93;;;;;;;;;;5088476;28;20477;-78
2022/11/13 01:31:23;;;;;;;32.00;14.88;;;;;;;;;;5071796;28;20062;-80
2022/11/13 01:33:49;;;;;;;28.70;14.68;;;;;;;;;;5089294;28;20405;-79
2022/11/13 01:36:20;;;;;;;27.40;14.15;;;;;;;;;;5089443;28;20178;-79
2022/11/13 01:38:47;;;;;;;28.58;13.98;;;;;;;;;;5071773;28;20058;-78
2022/11/13 01:41:18;;;;;;;33.28;15.15;;;;;;;;;;5097085;28;20075;-78
2022/11/13 01:43:49;;;;;;;27.67;13.85;;;;;;;;;;5091947;28;20052;-79
2022/11/13 01:46:19;;;;;;;29.13;12.60;;;;;;;;;;5090427;28;20079;-79
2022/11/13 01:48:53;;;;;;;29.48;13.40;;;;;;;;;;5090481;28;20054;-78
2022/11/13 01:51:46;;;;;;;27.73;12.98;;;;;;;;;;5090713;28;20130;-77
2022/11/13 01:54:14;;;;;;;28.95;12.75;;;;;;;;;;5057615;28;20082;-78
2022/11/13 01:56:41;;;;;;;27.90;13.18;;;;;;;;;;5088488;28;20127;-77
2022/11/13 01:59:11;;;;;;;27.75;12.80;;;;;;;;;;5088077;28;20048;-77
2022/11/13 02:01:38;;;;;;;24.48;12.77;;;;;;;;;;5089107;28;20043;-77
2022/11/13 02:04:04;;;;;;;26.02;13.07;;;;;;;;;;5086163;28;20044;-79
2022/11/13 02:06:57;;;;;;;28.35;13.10;;;;;;;;;;5089722;28;20044;-80
2022/11/13 02:09:26;;;;;;;28.98;13.40;;;;;;;;;;5088033;28;20052;-79
2022/11/13 02:11:52;;;;;;;29.52;13.45;;;;;;;;;;5086702;28;20561;-79
2022/11/13 02:14:20;;;;;;;27.33;12.82;;;;;;;;;;5088226;28;20047;-79
2022/11/13 02:16:48;;;;;;;24.45;11.88;;;;;;;;;;5089268;28;20044;-77
2022/11/13 02:19:18;;;;;;;26.85;12.32;;;;;;;;;;5087795;28;20698;-77
2022/11/13 02:22:04;;;;;;;27.52;12.75;;;;;;;;;;5088806;28;20048;-79
2022/11/13 02:24:32;;;;;;;23.73;11.43;;;;;;;;;;5088530;28;20044;-79
2022/11/13 02:27:09;;;;;;;24.95;12.40;;;;;;;;;;5089277;28;20101;-79
2022/11/13 02:29:35;;;;;;;23.77;12.55;;;;;;;;;;5090029;28;20138;-79
2022/11/13 02:32:05;;;;;;;27.42;13.15;;;;;;;;;;5072336;28;20044;-77
2022/11/13 02:34:31;;;;;;;25.73;12.07;;;;;;;;;;5069743;28;20052;-78
2022/11/13 02:36:57;;;;;;;27.45;11.25;;;;;;;;;;5088461;28;20463;-77
2022/11/13 02:39:24;;;;;;;27.85;11.43;;;;;;;;;;5089130;28;20048;-77
2022/11/13 02:41:50;;;;;;;28.77;12.65;;;;;;;;;;5086598;28;20567;-77
2022/11/13 02:44:17;;;;;;;30.48;12.52;;;;;;;;;;5086698;28;20044;-76
2022/11/13 02:46:43;;;;;;;27.38;12.45;;;;;;;;;;5069902;28;20062;-78
2022/11/13 02:49:09;;;;;;;24.20;11.98;;;;;;;;;;5071244;28;20124;-78
2022/11/13 02:51:36;;;;;;;24.95;11.75;;;;;;;;;;5087330;28;20056;-76
2022/11/13 02:54:05;;;;;;;26.58;11.77;;;;;;;;;;5088048;28;20127;-77
2022/11/13 02:56:31;;;;;;;27.42;11.93;;;;;;;;;;5087508;28;20075;-78
2022/11/13 02:58:58;;;;;;;25.33;12.27;;;;;;;;;;5088678;28;20044;-78
2022/11/13 03:01:24;;;;;;;21.98;11.40;;;;;;;;;;5071531;28;20054;-78
2022/11/13 03:03:51;;;;;;;26.95;12.93;;;;;;;;;;5087246;28;20072;-79
2022/11/13 03:06:24;;;;;;;20.75;10.30;;;;;;;;;;5089263;28;20144;-78
2022/11/13 03:08:52;;;;;;;19.90;9.52;;;;;;;;;;5089762;28;20062;-78
2022/11/13 03:11:19;;;;;;;21.75;9.55;;;;;;;;;;5088264;28;20075;-75
2022/11/13 03:13:45;;;;;;;23.95;9.80;;;;;;;;;;5089038;28;20601;-78
2022/11/13 03:16:13;;;;;;;22.10;9.95;;;;;;;;;;5092513;28;20074;-77
2022/11/13 03:18:40;;;;;;;20.27;9.98;;;;;;;;;;5091388;28;20073;-76
2022/11/13 03:21:08;;;;;;;22.67;10.43;;;;;;;;;;5100146;28;20044;-77
2022/11/13 03:23:34;;;;;;;23.23;10.48;;;;;;;;;;5116376;28;20042;-78
2022/11/13 03:26:01;;;;;;;23.75;10.60;;;;;;;;;;5119156;28;20044;-78
2022/11/13 03:28:28;;;;;;;25.40;10.77;;;;;;;;;;5102275;28;20579;-79
2022/11/13 03:30:55;;;;;;;23.77;9.98;;;;;;;;;;5091154;28;20063;-78
2022/11/13 03:33:22;;;;;;;20.23;9.70;;;;;;;;;;5090762;28;20055;-78
2022/11/13 03:35:48;;;;;;;20.17;9.68;;;;;;;;;;5089280;28;20052;-79
2022/11/13 03:38:14;;;;;;;18.73;8.68;;;;;;;;;;5090249;28;20071;-77
2022/11/13 03:40:42;;;;;;;18.02;9.57;;;;;;;;;;5091056;28;20044;-77
2022/11/13 03:43:08;;;;;;;21.52;9.10;;;;;;;;;;5088907;28;20397;-77
2022/11/13 03:45:34;;;;;;;21.58;9.30;;;;;;;;;;5090978;28;20048;-77
2022/11/13 03:48:01;;;;;;;17.83;8.95;;;;;;;;;;5090672;28;20052;-77
2022/11/13 03:50:27;;;;;;;20.48;9.73;;;;;;;;;;5089856;28;20056;-78
2022/11/13 03:52:54;;;;;;;17.55;8.77;;;;;;;;;;5089167;28;20062;-78
2022/11/13 03:55:20;;;;;;;20.02;9.43;;;;;;;;;;5090241;28;20060;-77
2022/11/13 03:57:47;;;;;;;17.38;8.35;;;;;;;;;;5089345;28;20044;-79
2022/11/13 04:00:14;;;;;;;19.77;9.88;;;;;;;;;;5091521;28;20415;-79
2022/11/13 04:02:40;;;;;;;23.10;9.27;;;;;;;;;;5090752;28;20048;-78
2022/11/13 04:05:07;;;;;;;21.60;9.70;;;;;;;;;;5082431;28;20128;-79
2022/11/13 04:07:33;;;;;;;20.67;10.00;;;;;;;;;;5090367;28;20564;-77
2022/11/13 04:10:00;;;;;;;21.23;10.23;;;;;;;;;;5087951;28;20798;-80
2022/11/13 04:12:26;;;;;;;21.15;9.75;;;;;;;;;;5095575;28;20056;-77
2022/11/13 04:14:52;;;;;;;21.80;9.75;;;;;;;;;;5100525;28;20053;-79
2022/11/13 04:17:19;;;;;;;22.45;10.07;;;;;;;;;;5089901;28;20054;-77
2022/11/13 04:19:45;;;;;;;20.00;9.95;;;;;;;;;;5088560;28;20055;-77
2022/11/13 04:22:12;;;;;;;17.65;9.18;;;;;;;;;;5088462;28;20063;-77
2022/11/13 04:24:38;;;;;;;19.67;9.93;;;;;;;;;;5089533;28;20064;-79
2022/11/13 04:27:04;;;;;;;17.40;8.73;;;;;;;;;;5090012;28;20052;-79
2022/11/13 04:29:31;;;;;;;24.55;10.20;;;;;;;;;;5088080;28;20052;-77
2022/11/13 04:31:57;;;;;;;19.08;9.30;;;;;;;;;;5089974;28;20063;-79
2022/11/13 04:34:24;;;;;;;19.50;9.77;;;;;;;;;;5088640;28;20048;-77
2022/11/13 04:36:50;;;;;;;20.75;9.48;;;;;;;;;;5089036;28;20056;-80
2022/11/13 04:39:16;;;;;;;19.00;9.40;;;;;;;;;;5090106;28;20040;-77
2022/11/13 04:44:28;;;;;;;19.85;8.98;;;;;;;;;;5089037;28;20089;-80
2022/11/13 04:46:54;;;;;;;19.30;9.35;;;;;;;;;;5089973;28;20058;-77
2022/11/13 04:49:21;;;;;;;19.00;8.80;;;;;;;;;;5089740;28;20127;-78
2022/11/13 04:51:47;;;;;;;19.23;9.77;;;;;;;;;;5090462;28;20516;-76
2022/11/13 04:54:14;;;;;;;24.13;9.65;;;;;;;;;;5090003;28;20139;-77
2022/11/13 04:56:40;;;;;;;22.52;9.60;;;;;;;;;;5088944;28;20083;-77
2022/11/13 04:59:07;;;;;;;20.20;9.25;;;;;;;;;;5089688;28;20054;-78
2022/11/13 05:01:34;;;;;;;19.50;9.15;;;;;;;;;;5090380;28;20670;-78
2022/11/13 05:04:01;;;;;;;19.40;9.30;;;;;;;;;;5089790;28;20082;-77
2022/11/13 05:06:27;;;;;;;19.17;9.05;;;;;;;;;;5093066;28;20062;-77
2022/11/13 05:08:54;;;;;;;18.15;9.40;;;;;;;;;;5089625;28;20068;-77
2022/11/13 05:11:20;;;;;;;19.35;9.25;;;;;;;;;;5088792;28;20058;-75
2022/11/13 05:13:46;;;;;;;24.20;9.68;;;;;;;;;;5088293;28;20513;-78
2022/11/13 05:16:13;;;;;;;16.15;8.68;;;;;;;;;;5088841;28;20177;-76
2022/11/13 05:18:40;;;;;;;17.63;8.93;;;;;;;;;;5088593;28;20051;-77
2022/11/13 05:21:07;;;;;;;18.20;8.13;;;;;;;;;;5088506;28;20614;-75
2022/11/13 05:23:34;;;;;;;16.90;7.97;;;;;;;;;;5087751;28;20040;-77
2022/11/13 05:26:01;;;;;;;15.55;8.05;;;;;;;;;;5087927;28;20080;-77
2022/11/13 05:28:28;;;;;;;17.95;8.52;;;;;;;;;;5088034;28;20047;-77
2022/11/13 05:31:01;;;;;;;21.00;8.55;;;;;;;;;;5089582;28;20058;-77
2022/11/13 05:33:28;;;;;;;15.95;8.23;;;;;;;;;;5087072;28;20705;-77
2022/11/13 05:35:54;;;;;;;20.67;9.02;;;;;;;;;;5088908;28;20051;-77
2022/11/13 05:38:21;;;;;;;18.38;8.45;;;;;;;;;;5070171;28;20129;-77
2022/11/13 05:40:47;;;;;;;18.55;8.52;;;;;;;;;;5087705;28;20054;-77
2022/11/13 05:43:14;;;;;;;17.35;8.23;;;;;;;;;;5086217;28;20046;-77
2022/11/13 05:45:40;;;;;;;16.35;7.93;;;;;;;;;;5088692;28;20488;-77
2022/11/13 05:48:06;;;;;;;18.67;8.32;;;;;;;;;;5088652;28;20062;-78
2022/11/13 05:50:33;;;;;;;18.55;8.77;;;;;;;;;;5088396;28;20067;-77
2022/11/13 05:52:59;;;;;;;19.52;8.60;;;;;;;;;;5087887;28;20052;-75
2022/11/13 05:55:26;;;;;;;17.35;7.97;;;;;;;;;;5089374;28;20096;-79
2022/11/13 05:57:52;;;;;;;16.38;8.20;;;;;;;;;;5074953;28;20048;-79
2022/11/13 06:00:18;;;;;;;21.05;8.02;;;;;;;;;;5072971;28;20472;-80
2022/11/13 06:02:45;;;;;;;17.08;8.15;;;;;;;;;;5083942;28;20048;-77
2022/11/13 06:05:11;;;;;;;20.15;8.60;;;;;;;;;;5081529;28;20052;-76
2022/11/13 06:07:38;;;;;;;21.70;8.68;;;;;;;;;;5097506;28;20062;-78
2022/11/13 06:10:04;;;;;;;17.60;8.13;;;;;;;;;;5088032;28;20245;-78
2022/11/13 06:12:31;;;;;;;17.27;7.97;;;;;;;;;;5075688;28;20065;-78
2022/11/13 06:14:57;;;;;;;16.95;7.75;;;;;;;;;;5089666;28;20138;-79
2022/11/13 06:17:23;;;;;;;16.00;7.50;;;;;;;;;;5089428;28;20563;-78
2022/11/13 06:19:50;;;;;;;14.80;7.72;;;;;;;;;;5088948;28;20087;-79
2022/11/13 06:22:19;;;;;;;15.90;7.50;;;;;;;;;;5062500;28;20400;-78
2022/11/13 06:24:46;;;;;;;17.08;7.57;;;;;;;;;;5074193;28;20106;-79
2022/11/13 06:27:12;;;;;;;19.75;7.65;;;;;;;;;;5092779;28;20054;-79
2022/11/13 06:29:39;;;;;;;16.05;7.75;;;;;;;;;;5072692;28;20074;-78
2022/11/13 06:32:05;;;;;;;18.63;8.05;;;;;;;;;;5073707;28;20069;-77
2022/11/13 06:34:31;;;;;;;21.63;8.77;;;;;;;;;;5084208;28;20051;-78
2022/11/13 06:36:58;;;;;;;17.65;7.82;;;;;;;;;;5085052;28;20342;-77
2022/11/13 06:39:27;;;;;;;16.80;7.70;;;;;;;;;;5085924;28;20044;-77
2022/11/13 06:41:53;;;;;;;18.30;9.07;;;;;;;;;;5071827;28;20049;-77
2022/11/13 06:44:20;;;;;;;15.23;8.23;;;;;;;;;;5065852;28;20560;-77
2022/11/13 06:46:46;;;;;;;17.63;8.25;;;;;;;;;;5074935;28;20484;-75
2022/11/13 06:49:12;;;;;;;18.30;7.88;;;;;;;;;;5057850;28;20056;-78
2022/11/13 06:51:39;;;;;;;19.48;8.52;;;;;;;;;;5078685;28;20052;-76
2022/11/13 06:54:05;;;;;;;19.92;8.45;;;;;;;;;;5089085;28;20048;-75
2022/11/13 06:56:32;;;;;;;19.77;8.27;;;;;;;;;;5092564;28;20117;-77
2022/11/13 06:58:58;;;;;;;20.73;7.90;;;;;;;;;;5114548;28;20055;-78
2022/11/13 07:01:25;;;;;;;20.15;8.35;;;;;;;;;;5096117;28;20433;-79
2022/11/13 07:03:52;;;;;;;19.92;8.65;;;;;;;;;;5077401;28;20055;-77
2022/11/13 07:06:20;;;;;;;15.57;7.78;;;;;;;;;;5075137;28;20064;-78
2022/11/13 07:08:47;;;;;;;17.50;7.40;;;;;;;;;;5107856;28;20079;-78
2022/11/13 07:11:15;;;;;;;19.20;8.27;;;;;;;;;;5100779;28;20408;-79
2022/11/13 07:13:42;;;;;;;20.27;8.82;;;;;;;;;;5074295;28;20056;-76
2022/11/13 07:16:10;;;;;;;19.70;8.70;;;;;;;;;;5087012;28;20043;-77
2022/11/13 07:18:53;;;;;;;15.55;7.75;;;;;;;;;;5064146;28;20414;-77
2022/11/13 07:21:20;;;;;;;20.83;9.10;;;;;;;;;;5084890;28;20058;-77
2022/11/13 07:23:47;;;;;;;21.30;9.82;;;;;;;;;;5085418;28;20146;-77
2022/11/13 07:26:14;;;;;;;19.63;9.68;;;;;;;;;;5083902;28;20145;-76
2022/11/13 07:28:40;;;;;;;20.92;9.50;;;;;;;;;;5084340;28;20047;-73
2022/11/13 07:31:08;;;;;;;19.17;8.95;;;;;;;;;;5084825;28;20423;-77
2022/11/13 07:33:35;;;;;;;20.67;9.43;;;;;;;;;;5089430;28;20518;-77
2022/11/13 07:36:03;;;;;;;18.75;8.60;;;;;;;;;;5085507;28;20159;-78
2022/11/13 07:38:29;;;;;;;17.77;9.13;;;;;;;;;;5086491;28;20146;-76
2022/11/13 07:40:57;;;;;;;21.63;10.52;;;;;;;;;;5086641;28;20044;-77
2022/11/13 07:43:23;;;;;;;19.17;8.82;;;;;;;;;;5067646;28;20048;-78
2022/11/13 07:45:53;;;;;;;20.50;9.82;;;;;;;;;;5090065;28;20134;-79
2022/11/13 07:48:20;;;;;;;22.30;10.77;;;;;;;;;;5091012;28;20048;-79
2022/11/13 07:50:47;;;;;;;26.08;11.77;;;;;;;;;;5089009;28;20111;-77
2022/11/13 07:53:14;;;;;;;22.65;11.80;;;;;;;;;;5087413;28;20070;-78
2022/11/13 07:55:40;;;;;;;24.23;12.38;;;;;;;;;;5086969;28;20052;-75
2022/11/13 07:58:08;;;;;;;34.22;14.82;;;;;;;;;;5085946;28;20052;-77
2022/11/13 08:00:34;;;;;;;26.13;12.93;;;;;;;;;;5076402;28;20504;-77
2022/11/13 08:03:08;;;;;;;37.33;14.77;;;;;;;;;;5083862;28;20048;-79
2022/11/13 08:05:35;;;;;;;24.67;11.45;;;;;;;;;;5079228;28;20208;-75
2022/11/13 08:08:02;;;;;;;19.75;9.45;;;;;;;;;;5087586;28;20048;-78
2022/11/13 08:10:28;;;;;;;20.08;9.00;;;;;;;;;;5065602;28;20142;-79
2022/11/13 08:12:59;;;;;;;16.70;8.35;;;;;;;;;;5082151;28;20093;-78
2022/11/13 08:15:26;;;;;;;17.42;8.50;;;;;;;;;;5073294;28;20833;-79
2022/11/13 08:17:56;;;;;;;19.52;9.05;;;;;;;;;;5086154;28;20048;-79
2022/11/13 08:20:23;;;;;;;17.02;8.07;;;;;;;;;;5068118;28;20048;-78
2022/11/13 08:22:50;;;;;;;16.58;7.75;;;;;;;;;;5086781;28;20044;-79
2022/11/13 08:25:17;;;;;;;18.23;9.07;;;;;;;;;;5086480;28;20052;-76
2022/11/13 08:27:44;;;;;;;18.92;9.75;;;;;;;;;;5081409;28;20059;-76
2022/11/13 08:30:10;;;;;;;19.90;9.50;;;;;;;;;;5087424;28;20127;-78
2022/11/13 08:32:37;;;;;;;17.05;9.52;;;;;;;;;;5085232;28;20048;-79
2022/11/13 08:35:03;;;;;;;14.63;7.95;;;;;;;;;;5068791;28;20109;-79
2022/11/13 08:37:31;;;;;;;10.85;6.25;;;;;;;;;;5086151;28;20502;-79
2022/11/13 08:39:57;;;;;;;13.00;6.95;;;;;;;;;;5089121;28;20712;-79
2022/11/13 08:42:24;;;;;;;13.13;6.18;;;;;;;;;;5086570;28;20048;-79
2022/11/13 08:44:50;;;;;;;12.07;6.15;;;;;;;;;;5087252;28;20409;-79
2022/11/13 08:47:16;;;;;;;27.50;11.15;;;;;;;;;;5088841;28;20054;-78
2022/11/13 08:49:43;;;;;;;12.63;7.15;;;;;;;;;;5087510;28;20040;-79
2022/11/13 08:52:09;;;;;;;10.95;6.40;;;;;;;;;;5071723;28;20143;-79
2022/11/13 08:54:36;;;;;;;10.75;5.22;;;;;;;;;;5114212;28;20139;-79
2022/11/13 08:57:02;;;;;;;9.40;4.90;;;;;;;;;;5072361;28;20542;-78
2022/11/13 08:59:31;;;;;;;7.55;4.40;;;;;;;;;;5089177;28;20052;-78
2022/11/13 09:01:58;;;;;;;8.27;4.53;;;;;;;;;;5088426;28;20044;-79
2022/11/13 09:04:25;;;;;;;7.03;4.40;;;;;;;;;;5069761;28;20043;-79
2022/11/13 09:06:52;;;;;;;6.65;3.90;;;;;;;;;;5089683;28;20056;-77
2022/11/13 09:09:19;;;;;;;9.18;4.95;;;;;;;;;;5090207;28;20067;-78
2022/11/13 09:11:45;;;;;;;8.20;4.88;;;;;;;;;;5089408;28;20466;-77
2022/11/13 09:14:12;;;;;;;9.75;4.97;;;;;;;;;;5084841;28;20140;-78
2022/11/13 09:16:38;;;;;;;8.00;4.68;;;;;;;;;;5087878;28;20047;-79
2022/11/13 09:19:05;;;;;;;10.73;4.47;;;;;;;;;;5092327;28;20043;-80
2022/11/13 09:21:31;;;;;;;7.15;4.53;;;;;;;;;;5091091;28;20048;-79
2022/11/13 09:23:57;;;;;;;7.72;4.90;;;;;;;;;;5090655;28;20059;-79
2022/11/13 09:26:24;;;;;;;7.65;4.55;;;;;;;;;;5074611;28;20050;-79
2022/11/13 09:28:50;;;;;;;8.02;4.75;;;;;;;;;;5092363;28;20158;-78
2022/11/13 09:31:17;;;;;;;7.95;4.43;;;;;;;;;;5092930;28;20043;-79
2022/11/13 09:33:43;;;;;;;7.80;4.40;;;;;;;;;;5089380;28;20523;-78
2022/11/13 09:36:11;;;;;;;6.97;3.95;;;;;;;;;;5091394;28;20054;-78
2022/11/13 09:38:37;;;;;;;7.65;3.72;;;;;;;;;;5072359;28;20048;-79
2022/11/13 09:41:08;;;;;;;8.07;3.90;;;;;;;;;;5089984;28;20050;-79
2022/11/13 09:43:41;;;;;;;6.95;3.65;;;;;;;;;;5090639;28;20193;-79
2022/11/13 09:46:14;;;;;;;8.60;4.07;;;;;;;;;;5073012;28;20061;-79
2022/11/13 09:48:42;;;;;;;8.63;4.53;;;;;;;;;;5090739;28;20051;-79
2022/11/13 09:51:14;;;;;;;5.68;3.47;;;;;;;;;;5091387;28;20420;-79
2022/11/13 09:53:40;;;;;;;7.75;4.28;;;;;;;;;;5090725;28;20455;-81
2022/11/13 09:56:25;;;;;;;5.50;3.70;;;;;;;;;;5091037;28;20055;-80
2022/11/13 09:58:58;;;;;;;6.18;3.70;;;;;;;;;;5091359;28;20055;-80
2022/11/13 10:01:32;;;;;;;5.20;3.40;;;;;;;;;;5091740;28;20297;-81
2022/11/13 10:04:01;;;;;;;4.68;3.35;;;;;;;;;;5090222;28;20044;-80
2022/11/13 10:06:45;;;;;;;6.22;3.97;;;;;;;;;;5083686;28;20105;-80
2022/11/13 10:09:30;;;;;;;7.10;3.80;;;;;;;;;;5091380;28;20112;-80
2022/11/13 10:12:03;;;;;;;7.28;3.70;;;;;;;;;;5090099;28;20052;-79
2022/11/13 10:14:32;;;;;;;7.00;3.78;;;;;;;;;;5092426;28;20147;-79
2022/11/13 10:17:21;;;;;;;6.38;3.65;;;;;;;;;;5102225;28;20473;-79
2022/11/13 10:20:07;;;;;;;7.45;4.43;;;;;;;;;;5100116;28;20044;-79
2022/11/13 10:22:50;;;;;;;4.65;3.20;;;;;;;;;;5104425;28;20055;-77
2022/11/13 10:25:18;;;;;;;9.23;3.85;;;;;;;;;;5094727;28;20138;-79
2022/11/13 10:27:52;;;;;;;6.80;3.25;;;;;;;;;;5077707;28;20139;-79
2022/11/13 10:30:18;;;;;;;5.75;2.85;;;;;;;;;;5117833;28;20047;-80
2022/11/13 10:32:45;;;;;;;5.53;3.40;;;;;;;;;;5117778;28;20095;-81
2022/11/13 10:35:18;;;;;;;4.95;3.22;;;;;;;;;;5097916;28;20079;-80
2022/11/13 10:37:44;;;;;;;5.65;3.35;;;;;;;;;;5114407;28;20048;-80
2022/11/13 10:40:10;;;;;;;4.88;2.92;;;;;;;;;;5100657;28;20040;-79
2022/11/13 10:42:38;;;;;;;5.88;2.95;;;;;;;;;;5091900;28;20165;-80
2022/11/13 10:45:12;;;;;;;5.63;2.85;;;;;;;;;;5093675;28;20085;-78
2022/11/13 10:47:43;;;;;;;5.57;3.03;;;;;;;;;;5093737;28;20457;-79
2022/11/13 10:50:30;;;;;;;5.13;2.60;;;;;;;;;;5078780;28;20230;-79
2022/11/13 10:52:56;;;;;;;5.43;2.70;;;;;;;;;;5075733;28;20130;-79
2022/11/13 10:55:37;;;;;;;4.88;2.47;;;;;;;;;;5075663;28;20146;-78
2022/11/13 10:58:11;;;;;;;6.18;2.72;;;;;;;;;;5088528;28;20499;-79
2022/11/13 11:00:40;;;;;;;6.22;2.85;;;;;;;;;;5092120;28;20120;-78
2022/11/13 11:03:07;;;;;;;4.72;2.20;;;;;;;;;;5076211;28;20044;-79
2022/11/13 11:05:33;;;;;;;5.18;2.53;;;;;;;;;;5094249;28;20048;-80
2022/11/13 11:08:01;;;;;;;7.30;3.17;;;;;;;;;;5094318;28;20401;-80
2022/11/13 11:10:32;;;;;;;4.68;3.03;;;;;;;;;;5092143;28;20102;-80
2022/11/13 11:13:08;;;;;;;5.47;3.05;;;;;;;;;;5093285;28;20048;-80
2022/11/13 11:15:46;;;;;;;6.18;2.78;;;;;;;;;;5094972;28;20400;-80
2022/11/13 11:18:22;;;;;;;6.18;2.83;;;;;;;;;;5094068;28;20074;-79
2022/11/13 11:20:49;;;;;;;5.50;2.78;;;;;;;;;;5093689;28;20043;-79
2022/11/13 11:23:27;;;;;;;5.75;3.30;;;;;;;;;;5093323;28;20044;-79
2022/11/13 11:26:02;;;;;;;5.28;3.10;;;;;;;;;;5093939;28;20048;-80
2022/11/13 11:28:32;;;;;;;10.40;4.68;;;;;;;;;;5092868;28;20051;-79
2022/11/13 11:31:03;;;;;;;5.72;3.50;;;;;;;;;;5099056;28;20063;-79
2022/11/13 11:33:41;;;;;;;6.82;2.95;;;;;;;;;;5100098;28;20081;-79
2022/11/13 11:36:10;;;;;;;5.40;2.85;;;;;;;;;;5099184;28;20048;-78
2022/11/13 11:38:45;;;;;;;4.80;2.75;;;;;;;;;;5078651;28;20051;-79
2022/11/13 11:41:12;;;;;;;;;;;;;;;;;;5076062;28;20071;-78
2022/11/13 11:43:43;;;;;;;7.50;3.22;;;;;;;;;;5093020;28;19927;-79
2022/11/13 11:46:13;;;;;;;4.32;2.70;;;;;;;;;;5094686;28;20059;-79
2022/11/13 11:48:40;;;;;;;6.28;2.90;;;;;;;;;;5075844;28;20048;-79
2022/11/13 11:51:19;;;;;;;10.68;3.50;;;;;;;;;;5075584;28;20048;-79
2022/11/13 11:53:53;;;;;;;4.75;2.90;;;;;;;;;;5092585;28;20066;-78
2022/11/13 11:56:28;;;;;;;5.68;3.08;;;;;;;;;;5093354;28;20062;-78
2022/11/13 11:58:57;;;;;;;4.75;2.85;;;;;;;;;;5092172;28;20052;-80
2022/11/13 12:01:39;;;;;;;7.25;3.10;;;;;;;;;;5093889;28;20158;-78
2022/11/13 12:04:21;;;;;;;5.45;2.92;;;;;;;;;;5091693;28;20571;-79
2022/11/13 12:07:10;;;;;;;7.03;3.17;;;;;;;;;;5093475;28;20044;-79
2022/11/13 12:09:53;;;;;;;5.30;2.90;;;;;;;;;;5089491;28;20139;-78
2022/11/13 12:12:22;;;;;;;6.88;2.72;;;;;;;;;;5096991;28;20051;-78
2022/11/13 12:15:00;;;;;;;5.30;3.45;;;;;;;;;;5093032;28;20135;-79
2022/11/13 12:17:36;;;;;;;5.47;2.67;;;;;;;;;;5093527;28;20052;-79
2022/11/13 12:20:02;;;;;;;4.72;2.70;;;;;;;;;;5092780;28;20436;-78
2022/11/13 12:22:55;;;;;;;4.07;2.60;;;;;;;;;;5096774;28;20080;-79
2022/11/13 12:25:40;;;;;;;4.80;2.00;;;;;;;;;;5087250;28;20044;-79
2022/11/13 12:28:16;;;;;;;2.33;1.48;;;;;;;;;;5091384;28;20594;-79
2022/11/13 12:31:01;;;;;;;4.28;1.55;;;;;;;;;;5092557;28;20139;-80
2022/11/13 12:33:40;;;;;;;1.57;0.97;;;;;;;;;;5092829;28;20078;-80
2022/11/13 12:36:08;;;;;;;3.15;1.60;;;;;;;;;;5093514;28;20075;-80
2022/11/13 12:38:46;;;;;;;4.05;1.25;;;;;;;;;;5075535;28;20048;-79
2022/11/13 12:41:31;;;;;;;2.83;1.20;;;;;;;;;;5092272;28;20127;-78
2022/11/13 12:44:18;;;;;;;2.75;1.40;;;;;;;;;;5090418;28;20143;-79
2022/11/13 12:46:45;;;;;;;3.58;1.17;;;;;;;;;;5091971;28;20265;-78
2022/11/13 12:49:24;;;;;;;3.75;1.30;;;;;;;;;;5091496;28;20116;-79
2022/11/13 12:51:54;;;;;;;3.38;1.50;;;;;;;;;;5091763;28;20054;-79
2022/11/13 12:54:24;;;;;;;2.35;1.23;;;;;;;;;;5090868;28;20048;-78
2022/11/13 12:56:50;;;;;;;2.05;1.02;;;;;;;;;;5090193;28;20447;-77
2022/11/13 12:59:17;;;;;;;4.38;1.30;;;;;;;;;;5091085;28;20050;-78
2022/11/13 13:02:01;;;;;;;2.13;1.08;;;;;;;;;;5091478;28;20264;-78
2022/11/13 13:04:28;;;;;;;2.90;1.30;;;;;;;;;;5088310;28;20357;-79
2022/11/13 13:07:24;;;;;;;1.90;1.00;;;;;;;;;;5091699;28;20123;-79
2022/11/13 13:10:09;;;;;;;2.60;1.07;;;;;;;;;;5082063;28;20058;-79
2022/11/13 13:12:48;;;;;;;1.97;1.10;;;;;;;;;;5089664;28;20059;-78
2022/11/13 13:15:17;;;;;;;2.78;1.55;;;;;;;;;;5091966;28;20326;-78
2022/11/13 13:17:44;;;;;;;2.28;1.25;;;;;;;;;;5073943;28;20147;-78
2022/11/13 13:20:13;;;;;;;1.48;0.85;;;;;;;;;;5072041;28;20051;-78
2022/11/13 13:22:40;;;;;;;1.90;1.00;;;;;;;;;;5090806;28;20044;-79
2022/11/13 13:25:23;;;;;;;1.40;0.80;;;;;;;;;;5093564;28;20044;-80
2022/11/13 13:28:18;;;;;;;1.38;0.80;;;;;;;;;;5091057;28;20722;-79
2022/11/13 13:30:49;;;;;;;2.08;1.00;;;;;;;;;;5088771;28;20153;-79
2022/11/13 13:33:23;;;;;;;7.93;3.83;;;;;;;;;;5071525;28;20424;-79
2022/11/13 13:36:08;;;;;;;11.18;5.57;;;;;;;;;;5074090;28;20056;-80
2022/11/13 13:38:40;;;;;;;9.90;5.63;;;;;;;;;;5072648;28;21922;-79
2022/11/13 13:41:22;;;;;;;13.45;6.07;;;;;;;;;;5091461;28;20286;-79
2022/11/13 13:44:07;;;;;;;13.05;5.93;;;;;;;;;;5089700;28;20055;-80
2022/11/13 13:46:33;;;;;;;11.05;6.10;;;;;;;;;;5092562;28;20043;-79
2022/11/13 13:49:02;;;;;;;12.48;6.18;;;;;;;;;;5091098;28;20047;-79
2022/11/13 13:51:30;;;;;;;10.77;6.22;;;;;;;;;;5094557;28;20052;-79
2022/11/13 13:53:58;;;;;;;12.25;6.80;;;;;;;;;;5100265;28;20058;-78
2022/11/13 13:56:25;;;;;;;11.45;6.20;;;;;;;;;;5091110;28;20070;-78
2022/11/13 13:58:52;;;;;;;12.10;6.50;;;;;;;;;;5088812;28;20048;-79
2022/11/13 14:01:26;;;;;;;14.75;7.15;;;;;;;;;;5092035;28;20127;-79
2022/11/13 14:04:02;;;;;;;19.40;8.80;;;;;;;;;;5089359;28;20056;-78
2022/11/13 14:06:29;;;;;;;18.15;9.00;;;;;;;;;;5103914;28;20096;-78
2022/11/13 14:09:05;;;;;;;14.52;7.97;;;;;;;;;;5101731;28;20562;-79
2022/11/13 14:11:32;;;;;;;16.77;7.90;;;;;;;;;;5098179;28;20492;-80
2022/11/13 14:14:08;;;;;;;15.27;7.85;;;;;;;;;;5091749;28;20099;-79
2022/11/13 14:16:44;;;;;;;14.25;7.15;;;;;;;;;;5096112;28;20048;-79
2022/11/13 14:19:11;;;;;;;14.00;6.95;;;;;;;;;;5091582;28;20036;-79
2022/11/13 14:21:37;;;;;;;12.68;7.20;;;;;;;;;;5093787;28;20048;-79
2022/11/13 14:24:04;;;;;;;13.93;7.32;;;;;;;;;;5094640;28;20044;-79
2022/11/13 14:26:30;;;;;;;17.38;7.60;;;;;;;;;;5077425;28;20050;-79
2022/11/13 14:28:58;;;;;;;37.95;12.15;;;;;;;;;;5095997;28;20075;-79
2022/11/13 14:31:26;;;;;;;32.92;10.80;;;;;;;;;;5093201;28;20047;-79
2022/11/13 14:33:53;;;;;;;18.88;8.50;;;;;;;;;;5091149;28;20048;-78
2022/11/13 14:36:25;;;;;;;17.77;7.90;;;;;;;;;;5098928;28;20062;-78
2022/11/13 14:38:51;;;;;;;20.13;7.50;;;;;;;;;;5095375;28;20058;-79
2022/11/13 14:41:21;;;;;;;14.50;7.53;;;;;;;;;;5076405;28;20047;-78
2022/11/13 14:43:49;;;;;;;14.13;7.43;;;;;;;;;;5093285;28;20066;-78
2022/11/13 14:46:26;;;;;;;13.75;7.32;;;;;;;;;;5095966;28;20048;-78